sensor_id;sensor_type;location;lat;lon;timestamp;P1;durP1;ratioP1;P2;durP2;ratioP2
66585;SDS011;53444;45.822;16.092;2022-08-19T00:01:09;10.52;;;4.70;;
66585;SDS011;53444;45.822;16.092;2022-08-19T00:03:38;12.98;;;5.72;;
66585;SDS011;53444;45.822;16.092;2022-08-19T00:06:05;10.95;;;4.85;;
66585;SDS011;53444;45.822;16.092;2022-08-19T00:08:31;11.03;;;5.10;;
66585;SDS011;53444;45.822;16.092;2022-08-19T00:10:58;9.18;;;4.82;;
66585;SDS011;53444;45.822;16.092;2022-08-19T00:13:25;11.00;;;5.28;;
66585;SDS011;53444;45.822;16.092;2022-08-19T00:15:53;7.88;;;4.88;;
66585;SDS011;53444;45.822;16.092;2022-08-19T00:18:20;10.57;;;5.93;;
66585;SDS011;53444;45.822;16.092;2022-08-19T00:20:48;9.20;;;5.10;;
66585;SDS011;53444;45.822;16.092;2022-08-19T00:23:15;8.32;;;5.50;;
66585;SDS011;53444;45.822;16.092;2022-08-19T00:25:42;9.43;;;4.90;;
66585;SDS011;53444;45.822;16.092;2022-08-19T00:28:09;11.52;;;4.88;;
66585;SDS011;53444;45.822;16.092;2022-08-19T00:30:35;10.63;;;5.80;;
66585;SDS011;53444;45.822;16.092;2022-08-19T00:33:02;10.27;;;5.47;;
66585;SDS011;53444;45.822;16.092;2022-08-19T00:35:29;9.98;;;5.10;;
66585;SDS011;53444;45.822;16.092;2022-08-19T00:37:58;14.30;;;5.13;;
66585;SDS011;53444;45.822;16.092;2022-08-19T00:40:25;14.45;;;5.68;;
66585;SDS011;53444;45.822;16.092;2022-08-19T00:42:52;11.30;;;5.50;;
66585;SDS011;53444;45.822;16.092;2022-08-19T00:45:20;11.27;;;5.97;;
66585;SDS011;53444;45.822;16.092;2022-08-19T00:47:49;10.90;;;5.38;;
66585;SDS011;53444;45.822;16.092;2022-08-19T00:50:16;10.25;;;5.53;;
66585;SDS011;53444;45.822;16.092;2022-08-19T00:52:46;9.20;;;5.45;;
66585;SDS011;53444;45.822;16.092;2022-08-19T00:55:19;9.57;;;5.55;;
66585;SDS011;53444;45.822;16.092;2022-08-19T00:57:50;10.13;;;5.10;;
66585;SDS011;53444;45.822;16.092;2022-08-19T01:00:20;9.75;;;5.38;;
66585;SDS011;53444;45.822;16.092;2022-08-19T01:02:49;10.02;;;5.60;;
66585;SDS011;53444;45.822;16.092;2022-08-19T01:05:17;10.50;;;5.47;;
66585;SDS011;53444;45.822;16.092;2022-08-19T01:07:46;9.40;;;5.30;;
66585;SDS011;53444;45.822;16.092;2022-08-19T01:10:16;9.93;;;5.30;;
66585;SDS011;53444;45.822;16.092;2022-08-19T01:12:46;9.10;;;5.50;;
66585;SDS011;53444;45.822;16.092;2022-08-19T01:15:21;14.55;;;5.80;;
66585;SDS011;53444;45.822;16.092;2022-08-19T01:17:51;9.57;;;5.70;;
66585;SDS011;53444;45.822;16.092;2022-08-19T01:20:20;13.77;;;5.82;;
66585;SDS011;53444;45.822;16.092;2022-08-19T01:22:51;12.50;;;5.53;;
66585;SDS011;53444;45.822;16.092;2022-08-19T01:25:21;11.55;;;6.00;;
66585;SDS011;53444;45.822;16.092;2022-08-19T01:27:54;12.25;;;5.80;;
66585;SDS011;53444;45.822;16.092;2022-08-19T01:30:22;12.50;;;6.15;;
66585;SDS011;53444;45.822;16.092;2022-08-19T01:32:50;15.40;;;5.95;;
66585;SDS011;53444;45.822;16.092;2022-08-19T01:35:19;10.73;;;6.00;;
66585;SDS011;53444;45.822;16.092;2022-08-19T01:37:50;9.13;;;5.72;;
66585;SDS011;53444;45.822;16.092;2022-08-19T01:40:20;11.98;;;6.10;;
66585;SDS011;53444;45.822;16.092;2022-08-19T01:42:48;10.70;;;6.18;;
66585;SDS011;53444;45.822;16.092;2022-08-19T01:45:16;15.25;;;5.80;;
66585;SDS011;53444;45.822;16.092;2022-08-19T01:47:43;10.80;;;5.60;;
66585;SDS011;53444;45.822;16.092;2022-08-19T01:50:10;8.25;;;4.97;;
66585;SDS011;53444;45.822;16.092;2022-08-19T01:52:39;10.50;;;5.50;;
66585;SDS011;53444;45.822;16.092;2022-08-19T01:55:10;12.50;;;5.93;;
66585;SDS011;53444;45.822;16.092;2022-08-19T01:57:43;11.02;;;5.50;;
66585;SDS011;53444;45.822;16.092;2022-08-19T02:00:14;10.63;;;5.33;;
66585;SDS011;53444;45.822;16.092;2022-08-19T02:02:43;11.23;;;5.63;;
66585;SDS011;53444;45.822;16.092;2022-08-19T02:05:10;20.30;;;6.35;;
66585;SDS011;53444;45.822;16.092;2022-08-19T02:07:38;11.68;;;6.10;;
66585;SDS011;53444;45.822;16.092;2022-08-19T02:10:06;10.63;;;5.55;;
66585;SDS011;53444;45.822;16.092;2022-08-19T02:12:37;11.00;;;5.87;;
66585;SDS011;53444;45.822;16.092;2022-08-19T02:15:04;11.68;;;5.88;;
66585;SDS011;53444;45.822;16.092;2022-08-19T02:17:32;9.50;;;5.72;;
66585;SDS011;53444;45.822;16.092;2022-08-19T02:20:00;11.07;;;5.75;;
66585;SDS011;53444;45.822;16.092;2022-08-19T02:22:26;12.18;;;6.20;;
66585;SDS011;53444;45.822;16.092;2022-08-19T02:24:53;16.03;;;6.10;;
66585;SDS011;53444;45.822;16.092;2022-08-19T02:27:22;8.30;;;5.68;;
66585;SDS011;53444;45.822;16.092;2022-08-19T02:29:50;9.25;;;5.80;;
66585;SDS011;53444;45.822;16.092;2022-08-19T02:32:18;10.18;;;5.70;;
66585;SDS011;53444;45.822;16.092;2022-08-19T02:34:44;9.48;;;5.78;;
66585;SDS011;53444;45.822;16.092;2022-08-19T02:37:12;10.93;;;5.33;;
66585;SDS011;53444;45.822;16.092;2022-08-19T02:39:52;11.27;;;5.65;;
66585;SDS011;53444;45.822;16.092;2022-08-19T02:42:19;12.05;;;6.38;;
66585;SDS011;53444;45.822;16.092;2022-08-19T02:44:47;11.15;;;6.05;;
66585;SDS011;53444;45.822;16.092;2022-08-19T02:47:14;15.57;;;6.72;;
66585;SDS011;53444;45.822;16.092;2022-08-19T02:49:41;11.27;;;6.33;;
66585;SDS011;53444;45.822;16.092;2022-08-19T02:52:07;10.43;;;6.32;;
66585;SDS011;53444;45.822;16.092;2022-08-19T02:54:36;9.77;;;5.93;;
66585;SDS011;53444;45.822;16.092;2022-08-19T02:57:03;12.48;;;5.45;;
66585;SDS011;53444;45.822;16.092;2022-08-19T02:59:31;12.60;;;5.75;;
66585;SDS011;53444;45.822;16.092;2022-08-19T03:01:59;9.73;;;5.97;;
66585;SDS011;53444;45.822;16.092;2022-08-19T03:04:26;8.13;;;5.53;;
66585;SDS011;53444;45.822;16.092;2022-08-19T03:06:54;11.15;;;6.00;;
66585;SDS011;53444;45.822;16.092;2022-08-19T03:09:21;13.88;;;5.90;;
66585;SDS011;53444;45.822;16.092;2022-08-19T03:11:48;9.68;;;5.88;;
66585;SDS011;53444;45.822;16.092;2022-08-19T03:14:15;11.27;;;5.87;;
66585;SDS011;53444;45.822;16.092;2022-08-19T03:16:47;8.75;;;5.05;;
66585;SDS011;53444;45.822;16.092;2022-08-19T03:19:17;10.70;;;5.20;;
66585;SDS011;53444;45.822;16.092;2022-08-19T03:21:46;11.27;;;6.18;;
66585;SDS011;53444;45.822;16.092;2022-08-19T03:24:13;10.63;;;5.78;;
66585;SDS011;53444;45.822;16.092;2022-08-19T03:26:41;12.37;;;5.60;;
66585;SDS011;53444;45.822;16.092;2022-08-19T03:29:09;10.05;;;6.28;;
66585;SDS011;53444;45.822;16.092;2022-08-19T03:31:37;13.10;;;5.95;;
66585;SDS011;53444;45.822;16.092;2022-08-19T03:34:06;12.05;;;5.72;;
66585;SDS011;53444;45.822;16.092;2022-08-19T03:36:34;13.30;;;6.38;;
66585;SDS011;53444;45.822;16.092;2022-08-19T03:39:02;14.40;;;6.07;;
66585;SDS011;53444;45.822;16.092;2022-08-19T03:41:29;12.30;;;6.15;;
66585;SDS011;53444;45.822;16.092;2022-08-19T03:43:58;12.13;;;6.03;;
66585;SDS011;53444;45.822;16.092;2022-08-19T03:46:26;13.30;;;6.13;;
66585;SDS011;53444;45.822;16.092;2022-08-19T03:48:54;12.77;;;6.22;;
66585;SDS011;53444;45.822;16.092;2022-08-19T03:51:23;11.63;;;5.50;;
66585;SDS011;53444;45.822;16.092;2022-08-19T03:53:53;15.13;;;7.00;;
66585;SDS011;53444;45.822;16.092;2022-08-19T03:56:21;15.07;;;6.93;;
66585;SDS011;53444;45.822;16.092;2022-08-19T03:58:50;13.65;;;6.78;;
66585;SDS011;53444;45.822;16.092;2022-08-19T04:01:18;19.35;;;6.60;;
66585;SDS011;53444;45.822;16.092;2022-08-19T04:03:46;18.13;;;6.27;;
66585;SDS011;53444;45.822;16.092;2022-08-19T04:06:14;12.27;;;6.75;;
66585;SDS011;53444;45.822;16.092;2022-08-19T04:08:43;13.57;;;6.82;;
66585;SDS011;53444;45.822;16.092;2022-08-19T04:11:13;10.20;;;6.63;;
66585;SDS011;53444;45.822;16.092;2022-08-19T04:13:41;13.23;;;6.68;;
66585;SDS011;53444;45.822;16.092;2022-08-19T04:16:09;11.90;;;6.70;;
66585;SDS011;53444;45.822;16.092;2022-08-19T04:18:37;12.45;;;6.40;;
66585;SDS011;53444;45.822;16.092;2022-08-19T04:21:06;11.13;;;6.55;;
66585;SDS011;53444;45.822;16.092;2022-08-19T04:23:33;12.63;;;6.85;;
66585;SDS011;53444;45.822;16.092;2022-08-19T04:26:01;12.95;;;6.97;;
66585;SDS011;53444;45.822;16.092;2022-08-19T04:28:30;14.80;;;6.53;;
66585;SDS011;53444;45.822;16.092;2022-08-19T04:30:56;13.93;;;6.10;;
66585;SDS011;53444;45.822;16.092;2022-08-19T04:33:24;13.27;;;6.43;;
66585;SDS011;53444;45.822;16.092;2022-08-19T04:35:52;16.58;;;6.60;;
66585;SDS011;53444;45.822;16.092;2022-08-19T04:38:20;13.30;;;6.57;;
66585;SDS011;53444;45.822;16.092;2022-08-19T04:40:49;14.00;;;6.43;;
66585;SDS011;53444;45.822;16.092;2022-08-19T04:43:36;12.65;;;7.20;;
66585;SDS011;53444;45.822;16.092;2022-08-19T04:46:04;15.63;;;7.15;;
66585;SDS011;53444;45.822;16.092;2022-08-19T04:48:33;14.43;;;6.80;;
66585;SDS011;53444;45.822;16.092;2022-08-19T04:51:00;21.33;;;7.82;;
66585;SDS011;53444;45.822;16.092;2022-08-19T04:53:31;12.70;;;6.57;;
66585;SDS011;53444;45.822;16.092;2022-08-19T04:55:59;13.85;;;6.75;;
66585;SDS011;53444;45.822;16.092;2022-08-19T04:58:29;15.38;;;6.95;;
66585;SDS011;53444;45.822;16.092;2022-08-19T05:00:57;15.77;;;8.80;;
66585;SDS011;53444;45.822;16.092;2022-08-19T05:03:25;12.35;;;6.90;;
66585;SDS011;53444;45.822;16.092;2022-08-19T05:05:56;12.23;;;6.70;;
66585;SDS011;53444;45.822;16.092;2022-08-19T05:08:23;17.25;;;6.70;;
66585;SDS011;53444;45.822;16.092;2022-08-19T05:10:50;9.60;;;6.22;;
66585;SDS011;53444;45.822;16.092;2022-08-19T05:13:18;11.10;;;6.30;;
66585;SDS011;53444;45.822;16.092;2022-08-19T05:15:52;14.52;;;6.32;;
66585;SDS011;53444;45.822;16.092;2022-08-19T05:18:22;15.77;;;6.93;;
66585;SDS011;53444;45.822;16.092;2022-08-19T05:21:07;11.52;;;6.65;;
66585;SDS011;53444;45.822;16.092;2022-08-19T05:23:51;14.55;;;6.70;;
66585;SDS011;53444;45.822;16.092;2022-08-19T05:26:18;14.35;;;6.68;;
66585;SDS011;53444;45.822;16.092;2022-08-19T05:28:45;11.88;;;6.45;;
66585;SDS011;53444;45.822;16.092;2022-08-19T05:31:12;12.57;;;6.40;;
66585;SDS011;53444;45.822;16.092;2022-08-19T05:33:40;15.07;;;6.13;;
66585;SDS011;53444;45.822;16.092;2022-08-19T05:36:07;11.43;;;5.85;;
66585;SDS011;53444;45.822;16.092;2022-08-19T05:38:33;13.95;;;6.30;;
66585;SDS011;53444;45.822;16.092;2022-08-19T05:41:00;11.00;;;6.40;;
66585;SDS011;53444;45.822;16.092;2022-08-19T05:43:31;16.03;;;6.37;;
66585;SDS011;53444;45.822;16.092;2022-08-19T05:45:58;15.93;;;6.30;;
66585;SDS011;53444;45.822;16.092;2022-08-19T05:48:25;17.05;;;6.53;;
66585;SDS011;53444;45.822;16.092;2022-08-19T05:50:53;14.23;;;6.72;;
66585;SDS011;53444;45.822;16.092;2022-08-19T05:53:19;12.35;;;6.65;;
66585;SDS011;53444;45.822;16.092;2022-08-19T05:55:46;11.90;;;6.30;;
66585;SDS011;53444;45.822;16.092;2022-08-19T05:58:13;16.52;;;6.40;;
66585;SDS011;53444;45.822;16.092;2022-08-19T06:00:42;10.75;;;6.43;;
66585;SDS011;53444;45.822;16.092;2022-08-19T06:03:09;13.45;;;6.68;;
66585;SDS011;53444;45.822;16.092;2022-08-19T06:05:36;12.40;;;6.20;;
66585;SDS011;53444;45.822;16.092;2022-08-19T06:08:04;14.47;;;6.60;;
66585;SDS011;53444;45.822;16.092;2022-08-19T06:10:32;14.50;;;6.90;;
66585;SDS011;53444;45.822;16.092;2022-08-19T06:12:59;13.48;;;6.60;;
66585;SDS011;53444;45.822;16.092;2022-08-19T06:15:25;12.48;;;6.90;;
66585;SDS011;53444;45.822;16.092;2022-08-19T06:17:52;11.57;;;6.55;;
66585;SDS011;53444;45.822;16.092;2022-08-19T06:20:19;12.07;;;6.53;;
66585;SDS011;53444;45.822;16.092;2022-08-19T06:22:47;14.93;;;6.80;;
66585;SDS011;53444;45.822;16.092;2022-08-19T06:25:17;13.95;;;7.50;;
66585;SDS011;53444;45.822;16.092;2022-08-19T06:27:45;14.65;;;6.63;;
66585;SDS011;53444;45.822;16.092;2022-08-19T06:30:12;10.43;;;6.20;;
66585;SDS011;53444;45.822;16.092;2022-08-19T06:32:40;14.80;;;7.13;;
66585;SDS011;53444;45.822;16.092;2022-08-19T06:35:09;11.07;;;6.60;;
66585;SDS011;53444;45.822;16.092;2022-08-19T06:37:38;11.25;;;6.85;;
66585;SDS011;53444;45.822;16.092;2022-08-19T06:40:05;13.52;;;6.95;;
66585;SDS011;53444;45.822;16.092;2022-08-19T06:42:34;14.73;;;6.55;;
66585;SDS011;53444;45.822;16.092;2022-08-19T06:45:03;15.43;;;7.10;;
66585;SDS011;53444;45.822;16.092;2022-08-19T06:47:33;11.95;;;7.05;;
66585;SDS011;53444;45.822;16.092;2022-08-19T06:50:00;15.02;;;6.65;;
66585;SDS011;53444;45.822;16.092;2022-08-19T06:52:28;16.35;;;6.95;;
66585;SDS011;53444;45.822;16.092;2022-08-19T06:54:55;13.20;;;6.82;;
66585;SDS011;53444;45.822;16.092;2022-08-19T06:57:22;13.07;;;6.50;;
66585;SDS011;53444;45.822;16.092;2022-08-19T06:59:51;16.73;;;6.07;;
66585;SDS011;53444;45.822;16.092;2022-08-19T07:02:18;19.00;;;6.43;;
66585;SDS011;53444;45.822;16.092;2022-08-19T07:04:45;10.07;;;5.68;;
66585;SDS011;53444;45.822;16.092;2022-08-19T07:07:13;12.95;;;5.97;;
66585;SDS011;53444;45.822;16.092;2022-08-19T07:09:42;11.17;;;6.20;;
66585;SDS011;53444;45.822;16.092;2022-08-19T07:12:11;15.93;;;6.43;;
66585;SDS011;53444;45.822;16.092;2022-08-19T07:14:40;13.18;;;6.20;;
66585;SDS011;53444;45.822;16.092;2022-08-19T07:17:10;15.00;;;6.43;;
66585;SDS011;53444;45.822;16.092;2022-08-19T07:19:37;16.90;;;7.03;;
66585;SDS011;53444;45.822;16.092;2022-08-19T07:22:06;17.80;;;6.50;;
66585;SDS011;53444;45.822;16.092;2022-08-19T07:24:34;15.20;;;5.97;;
66585;SDS011;53444;45.822;16.092;2022-08-19T07:27:03;11.88;;;5.90;;
66585;SDS011;53444;45.822;16.092;2022-08-19T07:29:32;16.58;;;6.55;;
66585;SDS011;53444;45.822;16.092;2022-08-19T07:32:02;13.50;;;6.55;;
66585;SDS011;53444;45.822;16.092;2022-08-19T07:34:32;13.43;;;6.50;;
66585;SDS011;53444;45.822;16.092;2022-08-19T07:37:02;13.68;;;6.60;;
66585;SDS011;53444;45.822;16.092;2022-08-19T07:39:30;14.20;;;7.53;;
66585;SDS011;53444;45.822;16.092;2022-08-19T07:41:59;15.15;;;8.05;;
66585;SDS011;53444;45.822;16.092;2022-08-19T07:44:27;13.13;;;7.68;;
66585;SDS011;53444;45.822;16.092;2022-08-19T07:46:55;15.97;;;7.23;;
66585;SDS011;53444;45.822;16.092;2022-08-19T07:49:24;17.10;;;8.52;;
66585;SDS011;53444;45.822;16.092;2022-08-19T07:51:54;19.42;;;9.13;;
66585;SDS011;53444;45.822;16.092;2022-08-19T07:54:24;16.20;;;6.90;;
66585;SDS011;53444;45.822;16.092;2022-08-19T07:56:52;14.68;;;6.60;;
66585;SDS011;53444;45.822;16.092;2022-08-19T07:59:19;10.27;;;6.43;;
66585;SDS011;53444;45.822;16.092;2022-08-19T08:01:47;12.73;;;6.13;;
66585;SDS011;53444;45.822;16.092;2022-08-19T08:04:15;12.90;;;6.00;;
66585;SDS011;53444;45.822;16.092;2022-08-19T08:07:02;13.02;;;6.28;;
66585;SDS011;53444;45.822;16.092;2022-08-19T08:09:46;13.05;;;7.32;;
66585;SDS011;53444;45.822;16.092;2022-08-19T08:12:15;12.50;;;5.70;;
66585;SDS011;53444;45.822;16.092;2022-08-19T08:14:44;14.18;;;6.20;;
66585;SDS011;53444;45.822;16.092;2022-08-19T08:17:12;12.63;;;5.45;;
66585;SDS011;53444;45.822;16.092;2022-08-19T08:19:40;10.77;;;5.45;;
66585;SDS011;53444;45.822;16.092;2022-08-19T08:22:09;8.13;;;4.88;;
66585;SDS011;53444;45.822;16.092;2022-08-19T08:25:00;13.57;;;5.33;;
66585;SDS011;53444;45.822;16.092;2022-08-19T08:27:27;11.88;;;5.18;;
66585;SDS011;53444;45.822;16.092;2022-08-19T08:29:54;15.50;;;5.60;;
66585;SDS011;53444;45.822;16.092;2022-08-19T08:32:21;14.10;;;4.70;;
66585;SDS011;53444;45.822;16.092;2022-08-19T08:34:47;9.93;;;4.78;;
66585;SDS011;53444;45.822;16.092;2022-08-19T08:37:15;13.77;;;4.60;;
66585;SDS011;53444;45.822;16.092;2022-08-19T08:39:42;12.90;;;4.95;;
66585;SDS011;53444;45.822;16.092;2022-08-19T08:42:14;11.02;;;4.80;;
66585;SDS011;53444;45.822;16.092;2022-08-19T08:44:47;9.43;;;4.47;;
66585;SDS011;53444;45.822;16.092;2022-08-19T08:47:18;9.68;;;5.10;;
66585;SDS011;53444;45.822;16.092;2022-08-19T08:49:48;12.47;;;5.23;;
66585;SDS011;53444;45.822;16.092;2022-08-19T08:52:21;10.88;;;5.25;;
66585;SDS011;53444;45.822;16.092;2022-08-19T08:54:51;11.05;;;4.85;;
66585;SDS011;53444;45.822;16.092;2022-08-19T08:57:20;8.25;;;4.40;;
66585;SDS011;53444;45.822;16.092;2022-08-19T08:59:53;13.85;;;4.88;;
66585;SDS011;53444;45.822;16.092;2022-08-19T09:02:22;11.50;;;5.47;;
66585;SDS011;53444;45.822;16.092;2022-08-19T09:04:49;9.68;;;4.47;;
66585;SDS011;53444;45.822;16.092;2022-08-19T09:07:22;11.02;;;5.25;;
66585;SDS011;53444;45.822;16.092;2022-08-19T09:10:08;13.95;;;5.25;;
66585;SDS011;53444;45.822;16.092;2022-08-19T09:12:42;12.32;;;4.60;;
66585;SDS011;53444;45.822;16.092;2022-08-19T09:15:20;8.40;;;4.07;;
66585;SDS011;53444;45.822;16.092;2022-08-19T09:17:52;8.85;;;4.47;;
66585;SDS011;53444;45.822;16.092;2022-08-19T09:20:19;11.95;;;4.38;;
66585;SDS011;53444;45.822;16.092;2022-08-19T09:22:50;6.05;;;3.50;;
66585;SDS011;53444;45.822;16.092;2022-08-19T09:25:18;7.07;;;3.83;;
66585;SDS011;53444;45.822;16.092;2022-08-19T09:27:47;11.93;;;4.20;;
66585;SDS011;53444;45.822;16.092;2022-08-19T09:30:16;6.35;;;3.88;;
66585;SDS011;53444;45.822;16.092;2022-08-19T09:32:46;7.82;;;4.10;;
66585;SDS011;53444;45.822;16.092;2022-08-19T09:35:14;15.00;;;3.78;;
66585;SDS011;53444;45.822;16.092;2022-08-19T09:37:41;9.25;;;4.05;;
66585;SDS011;53444;45.822;16.092;2022-08-19T09:40:10;9.60;;;4.30;;
66585;SDS011;53444;45.822;16.092;2022-08-19T09:42:38;12.00;;;4.93;;
66585;SDS011;53444;45.822;16.092;2022-08-19T09:45:05;10.23;;;4.32;;
66585;SDS011;53444;45.822;16.092;2022-08-19T09:47:32;7.47;;;4.35;;
66585;SDS011;53444;45.822;16.092;2022-08-19T09:50:01;10.45;;;4.20;;
66585;SDS011;53444;45.822;16.092;2022-08-19T09:52:27;10.30;;;4.53;;
66585;SDS011;53444;45.822;16.092;2022-08-19T09:54:54;8.98;;;4.47;;
66585;SDS011;53444;45.822;16.092;2022-08-19T09:57:22;10.05;;;4.25;;
66585;SDS011;53444;45.822;16.092;2022-08-19T09:59:49;12.23;;;4.60;;
66585;SDS011;53444;45.822;16.092;2022-08-19T10:02:16;12.48;;;4.65;;
66585;SDS011;53444;45.822;16.092;2022-08-19T10:04:43;13.03;;;5.10;;
66585;SDS011;53444;45.822;16.092;2022-08-19T10:07:29;12.98;;;6.00;;
66585;SDS011;53444;45.822;16.092;2022-08-19T10:09:55;14.55;;;5.70;;
66585;SDS011;53444;45.822;16.092;2022-08-19T10:12:23;12.05;;;6.15;;
66585;SDS011;53444;45.822;16.092;2022-08-19T10:14:50;13.90;;;5.63;;
66585;SDS011;53444;45.822;16.092;2022-08-19T10:17:19;14.10;;;6.20;;
66585;SDS011;53444;45.822;16.092;2022-08-19T10:19:46;14.23;;;6.53;;
66585;SDS011;53444;45.822;16.092;2022-08-19T10:22:12;11.90;;;5.97;;
66585;SDS011;53444;45.822;16.092;2022-08-19T10:24:40;12.68;;;5.80;;
66585;SDS011;53444;45.822;16.092;2022-08-19T10:27:07;11.15;;;5.85;;
66585;SDS011;53444;45.822;16.092;2022-08-19T10:29:36;10.90;;;5.77;;
66585;SDS011;53444;45.822;16.092;2022-08-19T10:32:03;14.27;;;5.85;;
66585;SDS011;53444;45.822;16.092;2022-08-19T10:34:33;15.15;;;6.45;;
66585;SDS011;53444;45.822;16.092;2022-08-19T10:37:01;13.00;;;6.18;;
66585;SDS011;53444;45.822;16.092;2022-08-19T10:39:31;15.95;;;7.78;;
66585;SDS011;53444;45.822;16.092;2022-08-19T10:41:58;13.53;;;7.00;;
66585;SDS011;53444;45.822;16.092;2022-08-19T10:44:25;14.20;;;6.47;;
66585;SDS011;53444;45.822;16.092;2022-08-19T10:46:56;10.35;;;5.93;;
66585;SDS011;53444;45.822;16.092;2022-08-19T10:49:24;10.35;;;5.45;;
66585;SDS011;53444;45.822;16.092;2022-08-19T10:51:50;11.88;;;5.70;;
66585;SDS011;53444;45.822;16.092;2022-08-19T10:54:35;10.57;;;5.70;;
66585;SDS011;53444;45.822;16.092;2022-08-19T10:57:19;17.38;;;5.88;;
66585;SDS011;53444;45.822;16.092;2022-08-19T10:59:49;16.65;;;6.00;;
66585;SDS011;53444;45.822;16.092;2022-08-19T11:02:17;14.35;;;5.65;;
66585;SDS011;53444;45.822;16.092;2022-08-19T11:04:43;9.48;;;5.43;;
66585;SDS011;53444;45.822;16.092;2022-08-19T11:07:10;10.53;;;5.10;;
66585;SDS011;53444;45.822;16.092;2022-08-19T11:09:38;16.80;;;5.55;;
66585;SDS011;53444;45.822;16.092;2022-08-19T11:12:07;12.48;;;5.50;;
66585;SDS011;53444;45.822;16.092;2022-08-19T11:14:35;11.73;;;5.07;;
66585;SDS011;53444;45.822;16.092;2022-08-19T11:17:02;11.63;;;4.85;;
66585;SDS011;53444;45.822;16.092;2022-08-19T11:19:31;12.50;;;4.70;;
66585;SDS011;53444;45.822;16.092;2022-08-19T11:21:58;10.90;;;4.78;;
66585;SDS011;53444;45.822;16.092;2022-08-19T11:24:28;13.80;;;5.18;;
66585;SDS011;53444;45.822;16.092;2022-08-19T11:26:59;13.25;;;5.32;;
66585;SDS011;53444;45.822;16.092;2022-08-19T11:29:29;11.68;;;4.93;;
66585;SDS011;53444;45.822;16.092;2022-08-19T11:31:57;10.97;;;4.83;;
66585;SDS011;53444;45.822;16.092;2022-08-19T11:34:27;10.27;;;4.53;;
66585;SDS011;53444;45.822;16.092;2022-08-19T11:36:56;11.18;;;4.20;;
66585;SDS011;53444;45.822;16.092;2022-08-19T11:39:24;15.30;;;4.20;;
66585;SDS011;53444;45.822;16.092;2022-08-19T11:41:53;13.23;;;4.32;;
66585;SDS011;53444;45.822;16.092;2022-08-19T11:44:20;12.17;;;4.00;;
66585;SDS011;53444;45.822;16.092;2022-08-19T11:46:47;13.70;;;4.20;;
66585;SDS011;53444;45.822;16.092;2022-08-19T11:49:14;10.88;;;4.13;;
66585;SDS011;53444;45.822;16.092;2022-08-19T11:51:41;11.27;;;4.85;;
66585;SDS011;53444;45.822;16.092;2022-08-19T11:54:10;11.40;;;4.60;;
66585;SDS011;53444;45.822;16.092;2022-08-19T11:56:38;12.30;;;4.30;;
66585;SDS011;53444;45.822;16.092;2022-08-19T11:59:05;9.32;;;4.82;;
66585;SDS011;53444;45.822;16.092;2022-08-19T12:01:33;12.73;;;4.30;;
66585;SDS011;53444;45.822;16.092;2022-08-19T12:04:00;10.80;;;4.65;;
66585;SDS011;53444;45.822;16.092;2022-08-19T12:06:30;14.30;;;4.72;;
66585;SDS011;53444;45.822;16.092;2022-08-19T12:09:03;12.33;;;4.47;;
66585;SDS011;53444;45.822;16.092;2022-08-19T12:11:33;9.93;;;3.92;;
66585;SDS011;53444;45.822;16.092;2022-08-19T12:14:02;12.70;;;4.15;;
66585;SDS011;53444;45.822;16.092;2022-08-19T12:16:29;15.07;;;4.72;;
66585;SDS011;53444;45.822;16.092;2022-08-19T12:18:57;12.15;;;4.60;;
66585;SDS011;53444;45.822;16.092;2022-08-19T12:21:28;11.93;;;3.80;;
66585;SDS011;53444;45.822;16.092;2022-08-19T12:23:56;12.32;;;4.43;;
66585;SDS011;53444;45.822;16.092;2022-08-19T12:26:24;9.98;;;4.30;;
66585;SDS011;53444;45.822;16.092;2022-08-19T12:28:53;14.60;;;4.55;;
66585;SDS011;53444;45.822;16.092;2022-08-19T12:31:20;8.80;;;4.10;;
66585;SDS011;53444;45.822;16.092;2022-08-19T12:33:47;12.27;;;3.40;;
66585;SDS011;53444;45.822;16.092;2022-08-19T12:36:14;15.23;;;4.38;;
66585;SDS011;53444;45.822;16.092;2022-08-19T12:38:42;20.98;;;4.88;;
66585;SDS011;53444;45.822;16.092;2022-08-19T12:41:12;10.32;;;3.83;;
66585;SDS011;53444;45.822;16.092;2022-08-19T12:43:40;12.70;;;4.18;;
66585;SDS011;53444;45.822;16.092;2022-08-19T12:46:09;13.93;;;4.50;;
66585;SDS011;53444;45.822;16.092;2022-08-19T12:48:36;12.80;;;3.85;;
66585;SDS011;53444;45.822;16.092;2022-08-19T12:51:06;12.57;;;3.90;;
66585;SDS011;53444;45.822;16.092;2022-08-19T12:53:34;13.13;;;3.45;;
66585;SDS011;53444;45.822;16.092;2022-08-19T12:56:01;15.10;;;3.85;;
66585;SDS011;53444;45.822;16.092;2022-08-19T12:58:28;12.93;;;4.13;;
66585;SDS011;53444;45.822;16.092;2022-08-19T13:00:55;10.32;;;3.97;;
66585;SDS011;53444;45.822;16.092;2022-08-19T13:03:23;15.98;;;4.13;;
66585;SDS011;53444;45.822;16.092;2022-08-19T13:05:54;11.75;;;4.22;;
66585;SDS011;53444;45.822;16.092;2022-08-19T13:08:21;13.50;;;4.22;;
66585;SDS011;53444;45.822;16.092;2022-08-19T13:10:48;15.60;;;4.30;;
66585;SDS011;53444;45.822;16.092;2022-08-19T13:13:16;13.15;;;4.30;;
66585;SDS011;53444;45.822;16.092;2022-08-19T13:15:43;12.43;;;4.07;;
66585;SDS011;53444;45.822;16.092;2022-08-19T13:18:10;11.20;;;4.28;;
66585;SDS011;53444;45.822;16.092;2022-08-19T13:20:39;13.60;;;4.25;;
66585;SDS011;53444;45.822;16.092;2022-08-19T13:23:07;11.20;;;3.90;;
66585;SDS011;53444;45.822;16.092;2022-08-19T13:25:34;10.82;;;3.70;;
66585;SDS011;53444;45.822;16.092;2022-08-19T13:28:03;10.85;;;3.83;;
66585;SDS011;53444;45.822;16.092;2022-08-19T13:30:31;14.88;;;3.70;;
66585;SDS011;53444;45.822;16.092;2022-08-19T13:33:16;17.00;;;4.45;;
66585;SDS011;53444;45.822;16.092;2022-08-19T13:35:46;14.40;;;4.57;;
66585;SDS011;53444;45.822;16.092;2022-08-19T13:38:15;12.27;;;4.25;;
66585;SDS011;53444;45.822;16.092;2022-08-19T13:40:45;13.38;;;4.07;;
66585;SDS011;53444;45.822;16.092;2022-08-19T13:43:14;14.55;;;3.97;;
66585;SDS011;53444;45.822;16.092;2022-08-19T13:45:41;14.52;;;4.00;;
66585;SDS011;53444;45.822;16.092;2022-08-19T13:48:08;13.97;;;3.97;;
66585;SDS011;53444;45.822;16.092;2022-08-19T13:50:37;12.27;;;3.80;;
66585;SDS011;53444;45.822;16.092;2022-08-19T13:53:08;14.65;;;3.75;;
66585;SDS011;53444;45.822;16.092;2022-08-19T13:55:36;12.50;;;3.92;;
66585;SDS011;53444;45.822;16.092;2022-08-19T13:58:04;13.90;;;4.10;;
66585;SDS011;53444;45.822;16.092;2022-08-19T14:00:33;12.57;;;4.00;;
66585;SDS011;53444;45.822;16.092;2022-08-19T14:03:02;11.55;;;3.28;;
66585;SDS011;53444;45.822;16.092;2022-08-19T14:05:30;13.05;;;3.67;;
66585;SDS011;53444;45.822;16.092;2022-08-19T14:07:58;13.70;;;3.65;;
66585;SDS011;53444;45.822;16.092;2022-08-19T14:10:26;10.25;;;3.88;;
66585;SDS011;53444;45.822;16.092;2022-08-19T14:12:56;12.10;;;3.70;;
66585;SDS011;53444;45.822;16.092;2022-08-19T14:15:24;10.93;;;3.20;;
66585;SDS011;53444;45.822;16.092;2022-08-19T14:17:52;12.00;;;3.83;;
66585;SDS011;53444;45.822;16.092;2022-08-19T14:20:19;16.73;;;4.03;;
66585;SDS011;53444;45.822;16.092;2022-08-19T14:22:46;13.10;;;3.88;;
66585;SDS011;53444;45.822;16.092;2022-08-19T14:25:15;11.63;;;3.80;;
66585;SDS011;53444;45.822;16.092;2022-08-19T14:27:45;14.38;;;3.80;;
66585;SDS011;53444;45.822;16.092;2022-08-19T14:30:14;10.15;;;3.30;;
66585;SDS011;53444;45.822;16.092;2022-08-19T14:32:42;12.20;;;4.43;;